createdAt,value
2018-06-14T00:01:04.480Z,85.20
2018-06-14T00:04:02.294Z,85.20
2018-06-14T00:07:00.450Z,85.50
2018-06-14T00:09:58.206Z,83.30
2018-06-14T00:12:55.838Z,83.60
2018-06-14T00:15:55.766Z,83.80
2018-06-14T00:18:53.384Z,84.50
2018-06-14T00:21:51.100Z,82.90
2018-06-14T00:24:49.756Z,82.00
2018-06-14T00:27:56.791Z,82.20
2018-06-14T00:31:07.276Z,81.50
2018-06-14T00:37:44.566Z,81.50
2018-06-14T00:40:44.991Z,81.10
2018-06-14T00:43:42.721Z,81.50
2018-06-14T00:46:42.375Z,81.80
2018-06-14T00:49:41.602Z,82.50
2018-06-14T00:53:45.262Z,81.70
2018-06-14T00:57:04.945Z,81.70
2018-06-14T01:00:07.700Z,81.40
2018-06-14T01:03:10.829Z,83.10
2018-06-14T01:06:08.466Z,82.10
2018-06-14T01:09:06.269Z,82.00
2018-06-14T01:12:05.222Z,82.40
2018-06-14T01:15:04.105Z,82.40
2018-06-14T01:18:06.042Z,81.60
2018-06-14T01:21:07.780Z,81.40
2018-06-14T01:27:12.079Z,81.20
2018-06-14T01:30:15.071Z,81.00
2018-06-14T01:33:18.218Z,80.70
2018-06-14T01:36:16.572Z,80.80
2018-06-14T01:39:14.422Z,80.90
2018-06-14T01:42:19.851Z,80.90
2018-06-14T01:45:18.210Z,81.50
2018-06-14T01:48:21.763Z,81.70
2018-06-14T01:51:27.688Z,81.50
2018-06-14T01:54:26.605Z,82.80
2018-06-14T01:57:26.037Z,82.60
2018-06-14T02:00:31.113Z,81.80
2018-06-14T02:06:42.524Z,82.00
2018-06-14T02:09:51.735Z,81.60
2018-06-14T02:13:00.833Z,80.90
2018-06-14T02:15:59.109Z,80.90
2018-06-14T02:18:56.709Z,80.90
2018-06-14T02:22:14.100Z,81.30
2018-06-14T02:25:14.905Z,81.30
2018-06-14T02:28:12.744Z,80.50
2018-06-14T02:31:11.182Z,80.70
2018-06-14T02:34:16.953Z,80.70
2018-06-14T02:37:16.014Z,80.50
2018-06-14T02:40:19.409Z,80.10
2018-06-14T02:43:20.558Z,80.30
2018-06-14T02:46:21.551Z,80.70
2018-06-14T02:49:19.202Z,82.70
2018-06-14T02:52:16.903Z,81.40
2018-06-14T02:55:14.943Z,83.40
2018-06-14T03:01:03.120Z,81.40
2018-06-14T03:04:00.821Z,82.10
2018-06-14T03:06:58.624Z,81.70
2018-06-14T03:09:56.447Z,83.60
2018-06-14T03:12:54.126Z,81.70
2018-06-14T03:15:51.990Z,80.40
2018-06-14T03:18:49.621Z,80.40
2018-06-14T03:21:47.499Z,79.50
2018-06-14T03:24:45.366Z,80.00
2018-06-14T03:27:43.018Z,81.00
2018-06-14T03:30:40.586Z,80.90
2018-06-14T03:33:38.184Z,80.90
2018-06-14T03:36:36.049Z,80.90
2018-06-14T03:39:33.647Z,80.40
2018-06-14T03:42:31.387Z,80.60
2018-06-14T03:45:33.272Z,82.00
2018-06-14T03:48:31.248Z,81.60
2018-06-14T03:51:29.007Z,82.20
2018-06-14T03:54:26.896Z,82.40
2018-06-14T03:57:24.776Z,82.20
2018-06-14T04:03:14.768Z,82.00
2018-06-14T04:06:12.207Z,80.70
2018-06-14T04:09:10.078Z,80.80
2018-06-14T04:12:08.153Z,80.90
2018-06-14T04:15:05.991Z,79.90
2018-06-14T04:18:07.867Z,80.70
2018-06-14T04:21:05.538Z,80.60
2018-06-14T04:24:03.426Z,80.40
2018-06-14T04:27:01.577Z,80.70
2018-06-14T04:29:59.140Z,80.90
2018-06-14T04:32:56.703Z,81.10
2018-06-14T04:35:54.388Z,81.50
2018-06-14T04:38:53.404Z,82.20
2018-06-14T04:41:51.745Z,81.20
2018-06-14T04:44:49.632Z,81.30
2018-06-14T04:47:47.387Z,80.70
2018-06-14T04:50:45.272Z,80.30
2018-06-14T04:53:46.315Z,79.50
2018-06-14T04:56:44.008Z,78.50
2018-06-14T04:59:42.189Z,79.40
2018-06-14T05:02:40.103Z,79.40
2018-06-14T05:05:37.813Z,79.30
2018-06-14T05:08:35.583Z,79.50
2018-06-14T05:11:33.081Z,78.00
2018-06-14T05:14:31.012Z,77.70
2018-06-14T05:17:29.706Z,77.20
2018-06-14T05:20:27.530Z,78.30
2018-06-14T05:23:25.301Z,77.90
2018-06-14T05:26:22.989Z,77.20
2018-06-14T05:29:21.763Z,77.70
2018-06-14T05:32:22.743Z,76.60
2018-06-14T05:35:20.608Z,75.20
2018-06-14T05:38:18.886Z,75.00
2018-06-14T05:41:17.048Z,76.50
2018-06-14T05:44:14.689Z,75.80
2018-06-14T05:47:12.370Z,74.60
2018-06-14T05:50:10.276Z,74.20
2018-06-14T05:53:08.034Z,74.10
2018-06-14T05:56:09.686Z,74.20
2018-06-14T05:59:07.969Z,71.50
2018-06-14T06:02:05.763Z,71.60
2018-06-14T06:05:03.747Z,71.80
2018-06-14T06:08:01.734Z,70.30
2018-06-14T06:10:59.349Z,70.50
2018-06-14T06:13:57.272Z,69.70
2018-06-14T06:19:45.110Z,72.00
2018-06-14T06:25:48.947Z,70.60
2018-06-14T06:28:46.883Z,70.40
2018-06-14T06:31:44.719Z,70.70
2018-06-14T06:34:42.444Z,69.60
2018-06-14T06:37:40.296Z,66.80
2018-06-14T06:40:38.086Z,67.20
2018-06-14T06:43:35.716Z,67.60
2018-06-14T06:46:33.380Z,66.60
2018-06-14T06:49:30.840Z,66.50
2018-06-14T06:52:28.788Z,67.30
2018-06-14T06:55:26.259Z,67.80
2018-06-14T06:58:24.071Z,69.00
2018-06-14T07:01:21.833Z,66.20
2018-06-14T07:04:20.774Z,66.30
2018-06-14T07:07:18.476Z,65.40
2018-06-14T07:10:16.344Z,64.80
2018-06-14T07:13:14.426Z,65.00
2018-06-14T07:16:11.823Z,63.30
2018-06-14T07:19:09.671Z,63.50
2018-06-14T07:22:07.439Z,62.30
2018-06-14T07:25:05.095Z,61.80
2018-06-14T07:28:02.962Z,60.00
2018-06-14T07:31:00.689Z,59.40
2018-06-14T07:33:58.684Z,59.20
2018-06-14T07:36:56.120Z,59.60
2018-06-14T07:39:53.820Z,60.00
2018-06-14T07:42:51.312Z,60.90
2018-06-14T07:45:49.287Z,59.90
2018-06-14T07:48:46.929Z,59.00
2018-06-14T07:51:44.597Z,58.00
2018-06-14T07:54:42.449Z,59.10
2018-06-14T07:57:40.368Z,57.80
2018-06-14T08:00:38.178Z,58.10
2018-06-14T08:03:36.142Z,57.90
2018-06-14T08:06:33.845Z,57.40
2018-06-14T08:09:31.924Z,57.70
2018-06-14T08:12:29.958Z,57.60
2018-06-14T08:15:27.935Z,57.10
2018-06-14T08:18:25.925Z,57.60
2018-06-14T08:21:23.797Z,55.20
2018-06-14T08:24:21.739Z,53.80
2018-06-14T08:27:19.308Z,52.70
2018-06-14T08:30:17.248Z,53.40
2018-06-14T08:33:15.162Z,52.10
2018-06-14T08:36:13.030Z,51.20
2018-06-14T08:42:00.632Z,50.40
2018-06-14T08:44:58.444Z,51.30
2018-06-14T08:47:56.294Z,52.00
2018-06-14T08:50:54.190Z,51.80
2018-06-14T08:53:51.908Z,51.10
2018-06-14T08:56:49.674Z,50.60
2018-06-14T08:59:47.751Z,50.90
2018-06-14T09:02:45.423Z,51.80
2018-06-14T09:05:43.269Z,51.00
2018-06-14T09:08:41.060Z,50.70
2018-06-14T09:11:38.707Z,50.40
2018-06-14T09:14:36.321Z,53.60
2018-06-14T09:17:33.948Z,51.00
2018-06-14T09:20:31.726Z,52.60
2018-06-14T09:23:29.492Z,54.00
2018-06-14T09:26:27.142Z,53.70
2018-06-14T09:29:25.190Z,54.20
2018-06-14T09:32:22.920Z,53.90
2018-06-14T09:35:20.619Z,53.30
2018-06-14T09:38:19.596Z,52.50
2018-06-14T09:41:17.467Z,51.80
2018-06-14T09:44:15.138Z,51.60
2018-06-14T09:47:13.037Z,50.00
2018-06-14T09:50:10.806Z,50.90
2018-06-14T09:53:08.686Z,51.20
2018-06-14T09:56:06.712Z,51.40
2018-06-14T09:59:04.543Z,51.70
2018-06-14T10:02:02.033Z,51.90
2018-06-14T10:04:59.889Z,52.10
2018-06-14T10:08:01.816Z,50.60
2018-06-14T10:10:59.466Z,50.80
2018-06-14T10:13:57.385Z,51.50
2018-06-14T10:16:55.451Z,49.10
2018-06-14T10:19:53.258Z,48.70
2018-06-14T10:22:50.990Z,49.20
2018-06-14T10:25:48.882Z,56.10
2018-06-14T10:28:46.617Z,57.90
2018-06-14T10:31:44.288Z,53.20
2018-06-14T10:34:41.823Z,54.00
2018-06-14T10:37:39.122Z,47.80
2018-06-14T10:40:36.748Z,47.20
2018-06-14T10:43:34.391Z,46.80
2018-06-14T10:46:31.774Z,48.60
2018-06-14T10:49:29.532Z,47.60
2018-06-14T10:52:27.089Z,47.50
2018-06-14T10:55:24.506Z,47.70
2018-06-14T10:58:22.113Z,49.90
2018-06-14T11:01:19.798Z,49.80
2018-06-14T11:04:18.084Z,48.40
2018-06-14T11:07:15.883Z,49.10
2018-06-14T11:10:13.488Z,49.30
2018-06-14T11:13:10.965Z,49.30
2018-06-14T11:16:08.385Z,48.60
2018-06-14T11:19:06.057Z,49.20
2018-06-14T11:22:03.576Z,48.10
2018-06-14T11:25:05.153Z,46.60
2018-06-14T11:28:02.833Z,50.20
2018-06-14T11:31:00.311Z,50.60
2018-06-14T11:33:57.901Z,50.70
2018-06-14T11:36:55.434Z,48.10
2018-06-14T11:39:53.096Z,48.20
2018-06-14T11:42:50.606Z,47.70
2018-06-14T11:45:47.970Z,46.50
2018-06-14T11:48:45.386Z,46.20
2018-06-14T11:51:42.950Z,46.20
2018-06-14T11:54:40.548Z,45.70
2018-06-14T11:57:38.113Z,47.00
2018-06-14T12:00:39.804Z,47.50
2018-06-14T12:03:37.412Z,45.20
2018-06-14T12:06:34.986Z,45.30
2018-06-14T12:09:32.687Z,44.50
2018-06-14T12:12:30.264Z,42.60
2018-06-14T12:15:27.753Z,42.60
2018-06-14T12:18:25.277Z,42.70
2018-06-14T12:21:23.903Z,42.60
2018-06-14T12:24:21.512Z,43.70
2018-06-14T12:27:22.347Z,43.40
2018-06-14T12:30:19.678Z,43.60
2018-06-14T12:33:19.407Z,41.50
2018-06-14T12:36:32.737Z,43.80
2018-06-14T12:39:30.416Z,42.60
2018-06-14T12:42:28.022Z,43.40
2018-06-14T12:45:25.678Z,43.80
2018-06-14T12:48:30.785Z,44.70
2018-06-14T12:51:29.640Z,43.80
2018-06-14T12:54:27.258Z,43.80
2018-06-14T12:57:28.974Z,44.00
2018-06-14T13:00:44.829Z,45.00
2018-06-14T13:03:51.065Z,45.20
2018-06-14T13:06:48.246Z,42.90
2018-06-14T13:09:45.812Z,43.30
2018-06-14T13:12:43.472Z,42.60
2018-06-14T13:15:40.960Z,44.00
2018-06-14T13:18:38.367Z,43.20
2018-06-14T13:21:35.953Z,42.50
2018-06-14T13:24:33.421Z,39.90
2018-06-14T13:27:31.035Z,39.00
2018-06-14T13:30:30.199Z,39.40
2018-06-14T13:33:28.110Z,38.50
2018-06-14T13:36:26.915Z,39.20
2018-06-14T13:39:25.163Z,41.00
2018-06-14T13:42:22.602Z,41.40
2018-06-14T13:45:20.248Z,41.20
2018-06-14T13:48:17.845Z,42.60
2018-06-14T13:51:15.333Z,42.10
2018-06-14T13:54:12.967Z,40.80
2018-06-14T13:57:10.414Z,41.90
2018-06-14T14:00:08.026Z,43.20
2018-06-14T14:03:05.609Z,43.10
2018-06-14T14:06:03.100Z,43.60
2018-06-14T14:09:00.663Z,43.80
2018-06-14T14:11:58.118Z,42.90
2018-06-14T14:14:55.769Z,42.40
2018-06-14T14:17:53.214Z,43.00
2018-06-14T14:20:50.765Z,43.00
2018-06-14T14:23:48.296Z,41.90
2018-06-14T14:26:45.755Z,41.30
2018-06-14T14:29:43.135Z,40.80
2018-06-14T14:32:40.776Z,39.60
2018-06-14T14:35:38.264Z,41.00
2018-06-14T14:38:35.717Z,42.20
2018-06-14T14:41:33.378Z,42.10
2018-06-14T14:44:30.936Z,42.40
2018-06-14T14:47:28.406Z,43.10
2018-06-14T14:50:26.083Z,42.80
2018-06-14T14:53:23.757Z,42.10
2018-06-14T14:56:24.150Z,41.20
2018-06-14T14:59:26.101Z,40.90
2018-06-14T15:02:25.871Z,42.00
2018-06-14T15:05:23.392Z,41.50
2018-06-14T15:08:21.096Z,39.70
2018-06-14T15:11:18.788Z,39.20
2018-06-14T15:14:16.023Z,39.70
2018-06-14T15:17:15.417Z,40.00
2018-06-14T15:20:15.965Z,38.40
2018-06-14T15:23:13.641Z,38.70
2018-06-14T15:26:11.194Z,37.80
2018-06-14T15:29:08.868Z,38.40
2018-06-14T15:32:06.445Z,39.00
2018-06-14T15:35:04.041Z,38.40
2018-06-14T15:38:01.626Z,39.50
2018-06-14T15:41:01.135Z,40.40
2018-06-14T15:43:58.910Z,40.20
2018-06-14T15:46:56.456Z,40.30
2018-06-14T15:49:54.024Z,40.20
2018-06-14T15:52:51.553Z,38.90
2018-06-14T15:56:10.319Z,38.70
2018-06-14T15:59:07.614Z,38.90
2018-06-14T16:02:05.327Z,39.40
2018-06-14T16:05:02.951Z,40.40
2018-06-14T16:08:00.505Z,40.40
2018-06-14T16:10:58.164Z,41.40
2018-06-14T16:13:55.718Z,41.80
2018-06-14T16:16:53.270Z,41.90
2018-06-14T16:19:50.908Z,42.70
2018-06-14T16:22:48.280Z,42.80
2018-06-14T16:25:45.789Z,42.40
2018-06-14T16:28:44.766Z,43.40
2018-06-14T16:31:42.048Z,43.90
2018-06-14T16:34:57.589Z,44.30
2018-06-14T16:45:33.015Z,43.40
2018-06-14T16:52:27.823Z,42.10
2018-06-14T16:59:05.286Z,42.00
2018-06-14T17:02:14.420Z,41.20
2018-06-14T17:11:31.964Z,43.10
2018-06-14T17:14:41.135Z,42.40
2018-06-14T17:17:51.355Z,42.60
2018-06-14T17:21:04.428Z,43.40
2018-06-14T17:25:12.898Z,43.70
2018-06-14T17:28:23.398Z,42.80
2018-06-14T17:31:23.768Z,40.60
2018-06-14T17:34:21.621Z,40.90
2018-06-14T17:37:20.154Z,41.30
2018-06-14T17:40:18.880Z,41.40
2018-06-14T17:43:20.198Z,41.50
2018-06-14T17:46:23.870Z,42.70
2018-06-14T17:49:24.292Z,42.10
2018-06-14T17:52:26.945Z,42.80
2018-06-14T17:55:31.179Z,41.70
2018-06-14T18:01:43.077Z,40.30
2018-06-14T18:04:53.141Z,40.80
2018-06-14T18:07:50.847Z,40.00
2018-06-14T18:10:48.570Z,40.50
2018-06-14T18:13:46.690Z,41.20
2018-06-14T18:16:44.041Z,41.80
2018-06-14T18:19:41.612Z,41.70
2018-06-14T18:22:39.106Z,42.00
2018-06-14T18:25:36.707Z,42.80
2018-06-14T18:28:34.777Z,43.40
2018-06-14T18:31:32.833Z,44.00
2018-06-14T18:34:30.458Z,45.20
2018-06-14T18:37:27.957Z,45.80
2018-06-14T18:40:25.689Z,47.00
2018-06-14T18:43:23.242Z,48.70
2018-06-14T18:46:21.022Z,48.80
2018-06-14T18:49:18.603Z,49.30
2018-06-14T18:52:17.348Z,50.30
2018-06-14T18:55:14.858Z,51.40
2018-06-14T18:58:12.717Z,52.10
2018-06-14T19:01:16.090Z,53.40
2018-06-14T19:04:24.343Z,53.00
2018-06-14T19:07:22.534Z,53.60
2018-06-14T19:10:29.843Z,54.70
2018-06-14T19:13:27.497Z,54.70
2018-06-14T19:16:28.031Z,55.40
2018-06-14T19:19:25.593Z,56.90
2018-06-14T19:22:24.489Z,57.60
2018-06-14T19:25:22.396Z,57.60
2018-06-14T19:28:19.870Z,58.20
2018-06-14T19:31:31.994Z,59.60
2018-06-14T19:34:31.545Z,59.70
2018-06-14T19:37:31.501Z,59.70
2018-06-14T19:40:28.991Z,60.10
2018-06-14T19:43:26.710Z,60.10
2018-06-14T19:46:24.368Z,59.90
2018-06-14T19:49:23.202Z,60.30
2018-06-14T19:52:20.805Z,60.80
2018-06-14T19:55:20.227Z,61.30
2018-06-14T19:58:17.397Z,61.70
2018-06-14T20:01:15.394Z,62.00
2018-06-14T20:04:14.441Z,62.30
2018-06-14T20:07:15.216Z,62.60
2018-06-14T20:10:13.648Z,62.20
2018-06-14T20:13:11.256Z,62.80
2018-06-14T20:16:10.324Z,63.30
2018-06-14T20:19:07.812Z,63.90
2018-06-14T20:22:05.271Z,64.00
2018-06-14T20:25:02.878Z,63.10
2018-06-14T20:28:01.712Z,63.50
2018-06-14T20:30:59.072Z,63.60
2018-06-14T20:33:56.847Z,64.30
2018-06-14T20:39:45.921Z,64.50
2018-06-14T20:42:43.464Z,64.70
2018-06-14T20:45:41.285Z,64.10
2018-06-14T20:48:38.764Z,64.80
2018-06-14T20:51:37.629Z,65.30
2018-06-14T20:54:34.679Z,65.00
2018-06-14T20:57:32.343Z,65.50
2018-06-14T21:00:30.163Z,65.30
2018-06-14T21:03:27.762Z,65.80
2018-06-14T21:06:28.306Z,66.00
2018-06-14T21:09:26.958Z,66.20
2018-06-14T21:12:24.591Z,67.00
2018-06-14T21:15:22.107Z,67.10
2018-06-14T21:18:19.676Z,67.30
2018-06-14T21:21:17.273Z,68.20
2018-06-14T21:24:14.779Z,68.50
2018-06-14T21:27:12.240Z,68.50
2018-06-14T21:30:09.888Z,68.50
2018-06-14T21:33:07.447Z,69.20
2018-06-14T21:36:08.038Z,68.60
2018-06-14T21:39:08.822Z,70.10
2018-06-14T21:42:08.827Z,69.80
2018-06-14T21:45:08.147Z,69.50
2018-06-14T21:48:05.377Z,69.60
2018-06-14T21:51:02.897Z,69.80
2018-06-14T21:54:00.471Z,69.80
2018-06-14T21:56:57.997Z,70.10
2018-06-14T21:59:55.479Z,70.30
2018-06-14T22:03:01.065Z,70.60
2018-06-14T22:06:00.263Z,70.60
2018-06-14T22:08:58.119Z,71.50
2018-06-14T22:12:01.167Z,71.30
2018-06-14T22:15:00.441Z,71.10
2018-06-14T22:17:58.391Z,70.80
2018-06-14T22:20:58.006Z,71.00
2018-06-14T22:23:56.094Z,71.50
2018-06-14T22:26:53.686Z,71.40
2018-06-14T22:29:51.209Z,71.80
2018-06-14T22:32:49.015Z,72.20
2018-06-14T22:35:47.675Z,72.60
2018-06-14T22:38:47.598Z,72.80
2018-06-14T22:41:44.989Z,73.10
2018-06-14T22:44:42.557Z,73.30
2018-06-14T22:47:40.214Z,73.70
2018-06-14T22:50:50.762Z,73.50
2018-06-14T22:53:48.994Z,73.70
2018-06-14T22:59:41.367Z,73.90
2018-06-14T23:02:48.321Z,73.70
2018-06-14T23:05:46.336Z,73.90
2018-06-14T23:08:44.358Z,74.00
2018-06-14T23:11:42.877Z,74.00
2018-06-14T23:14:40.698Z,73.80
2018-06-14T23:17:38.355Z,73.70
2018-06-14T23:20:37.083Z,73.80
2018-06-14T23:23:34.909Z,73.50
2018-06-14T23:26:32.781Z,72.70
2018-06-14T23:29:46.730Z,73.40
2018-06-14T23:32:45.001Z,73.70
2018-06-14T23:35:52.392Z,73.30
2018-06-14T23:38:56.067Z,72.60
2018-06-14T23:41:54.889Z,73.00
2018-06-14T23:44:52.737Z,73.30
2018-06-14T23:47:50.461Z,73.00
2018-06-14T23:50:48.238Z,73.00
2018-06-14T23:53:46.047Z,72.90
2018-06-14T23:56:43.968Z,73.20
2018-06-14T23:59:41.708Z,72.50
